Terminal Aerodrome Forecast
Issued by NWS North Platte, NE

Home | Current Version | Previous Version | Text Only | Print | Product List | Glossary Off
Versions: 1 2 3 4 5 6 7 8 9 10 11 12 13 14 15

000
FTUS43 KLBF 251138
TAFVTN
TAF
KVTN 251138Z 2512/2612 35006KT P6SM FEW100 FEW200
     FM251500 36009KT P6SM SCT100 BKN250
     FM260000 02007KT P6SM BKN100
     FM260400 06006KT P6SM BKN100
     FM260900 10006KT P6SM BKN100=

USA.gov is the U.S. government's official web portal to all federal, state and local government web resources and services.